EGNR/CEG METAR and TAF weather

Enter ICAO airport designator
Station Type Date Time Source
EGNR METAR 2022/09/26 08:50 UTC NOAA

EGNR 260850Z 33015KT 9999 -RA FEW010 SCT025 11/08 Q1003


Station Type Date Time Source
EGNR Decoded METAR 2022/09/26 08:50 UTC NOAA

Hawarden, United Kingdom (EGNR) 53-10N 002-59W 0M
Sep 26, 2022 - 04:50 AM EDT / 2022.09.26 0850 UTC
Wind: from the NNW (330 degrees) at 17 MPH (15 KT):0
Visibility: greater than 7 mile(s):0
Sky conditions: partly cloudy
Weather: light rain
Temperature: 51 F (11 C)
Dew Point: 46 F (8 C)
Relative Humidity: 81%
Pressure (altimeter): 29.62 in. Hg (1003 hPa)
ob: EGNR 260850Z 33015KT 9999 -RA FEW010 SCT025 11/08 Q1003
cycle: 9

Station Type Date Time Source
EGNR TAF 2016/01/23 12:00 UTC NOAA

TAF EGNR 231059Z 2312/2319 15009KT 9999 FEW020
BECMG 2316/2319 BKN014
TEMPO 2317/2319 6000 RA BKN008

Example: see airport list